createdAt,value
2023-04-02T00:01:36.987Z,97.30
2023-04-02T00:04:09.567Z,96.98
2023-04-02T00:06:44.743Z,96.53
2023-04-02T00:09:14.217Z,96.46
2023-04-02T00:11:44.607Z,96.71
2023-04-02T00:14:37.100Z,95.87
2023-04-02T00:17:05.648Z,95.95
2023-04-02T00:19:38.326Z,96.62
2023-04-02T00:22:09.653Z,95.72
2023-04-02T00:24:39.125Z,95.49
2023-04-02T00:27:10.336Z,95.10
2023-04-02T00:29:36.961Z,95.84
2023-04-02T00:32:04.669Z,95.13
2023-04-02T00:34:38.024Z,95.55
2023-04-02T00:37:04.852Z,96.17
2023-04-02T00:39:47.147Z,96.03
2023-04-02T00:42:13.648Z,96.34
2023-04-02T00:44:43.702Z,95.91
2023-04-02T00:47:37.400Z,96.42
2023-04-02T00:50:14.457Z,94.28
2023-04-02T00:52:43.010Z,93.56
2023-04-02T00:55:20.976Z,94.02
2023-04-02T00:57:49.409Z,93.90
2023-04-02T01:00:27.384Z,94.06
2023-04-02T01:03:16.449Z,94.49
2023-04-02T01:06:02.796Z,95.21
2023-04-02T01:08:52.148Z,96.75
2023-04-02T01:11:28.404Z,96.21
2023-04-02T01:14:07.317Z,96.27
2023-04-02T01:16:54.089Z,96.00
2023-04-02T01:19:39.538Z,95.71
2023-04-02T01:22:14.630Z,96.63
2023-04-02T01:24:43.926Z,96.11
2023-04-02T01:27:23.818Z,95.56
2023-04-02T01:29:56.678Z,94.33
2023-04-02T01:32:26.267Z,94.17
2023-04-02T01:34:54.576Z,94.43
2023-04-02T01:37:56.121Z,93.30
2023-04-02T01:40:50.765Z,93.97
2023-04-02T01:43:29.745Z,93.57
2023-04-02T01:45:59.455Z,93.06
2023-04-02T01:48:30.434Z,93.57
2023-04-02T01:51:00.558Z,92.53
2023-04-02T01:53:31.356Z,92.99
2023-04-02T01:56:02.921Z,92.96
2023-04-02T01:58:31.876Z,92.95
2023-04-02T02:01:04.196Z,93.28
2023-04-02T02:03:33.842Z,92.50
2023-04-02T02:06:03.246Z,92.58
2023-04-02T02:08:39.016Z,92.78
2023-04-02T02:11:11.816Z,91.95
2023-04-02T02:13:39.125Z,91.66
2023-04-02T02:16:12.673Z,90.97
2023-04-02T02:18:39.493Z,91.18
2023-04-02T02:21:09.504Z,91.85
2023-04-02T02:23:36.874Z,91.50
2023-04-02T02:26:06.590Z,91.48
2023-04-02T02:28:40.453Z,91.25
2023-04-02T02:31:17.536Z,90.64
2023-04-02T02:33:51.073Z,91.59
2023-04-02T02:36:33.714Z,91.50
2023-04-02T02:39:12.644Z,91.33
2023-04-02T02:41:54.735Z,91.89
2023-04-02T02:44:26.096Z,91.52
2023-04-02T02:47:02.229Z,91.10
2023-04-02T02:49:32.978Z,91.73
2023-04-02T02:52:17.429Z,91.30
2023-04-02T02:55:14.529Z,90.79
2023-04-02T02:57:56.300Z,90.24
2023-04-02T03:00:26.764Z,90.43
2023-04-02T03:02:56.495Z,89.90
2023-04-02T03:05:28.496Z,90.62
2023-04-02T03:08:01.971Z,89.32
2023-04-02T03:10:54.351Z,89.17
2023-04-02T03:13:32.992Z,89.26
2023-04-02T03:16:11.288Z,89.09
2023-04-02T03:18:45.573Z,89.62
2023-04-02T03:21:28.232Z,89.84
2023-04-02T03:24:01.276Z,88.41
2023-04-02T03:26:38.315Z,87.17
2023-04-02T03:29:16.370Z,87.21
2023-04-02T03:31:50.472Z,86.90
2023-04-02T03:34:25.970Z,86.75
2023-04-02T03:37:46.981Z,87.10
2023-04-02T03:40:26.173Z,85.80
2023-04-02T03:42:58.302Z,85.30
2023-04-02T03:45:32.692Z,85.01
2023-04-02T03:48:12.137Z,84.89
2023-04-02T03:50:58.861Z,85.54
2023-04-02T03:53:27.439Z,84.43
2023-04-02T03:55:56.473Z,84.69
2023-04-02T03:58:39.435Z,84.61
2023-04-02T04:01:20.214Z,84.58
2023-04-02T04:03:53.089Z,83.70
2023-04-02T04:06:32.011Z,83.48
2023-04-02T04:09:08.765Z,83.23
2023-04-02T04:11:39.527Z,83.20
2023-04-02T04:14:16.633Z,81.77
2023-04-02T04:16:53.556Z,82.48
2023-04-02T04:19:29.957Z,81.65
2023-04-02T04:22:19.035Z,81.73
2023-04-02T04:24:49.313Z,81.61
2023-04-02T04:27:33.409Z,81.98
2023-04-02T04:30:06.192Z,81.83
2023-04-02T04:32:42.657Z,81.93
2023-04-02T04:35:35.086Z,81.92
2023-04-02T04:38:27.458Z,81.75
2023-04-02T04:41:15.927Z,81.13
2023-04-02T04:43:51.673Z,82.38
2023-04-02T04:46:40.657Z,82.66
2023-04-02T04:49:38.460Z,83.23
2023-04-02T04:52:14.164Z,82.46
2023-04-02T04:54:42.242Z,81.90
2023-04-02T04:57:42.570Z,81.75
2023-04-02T05:00:19.575Z,81.11
2023-04-02T05:02:53.627Z,80.53
2023-04-02T05:05:27.390Z,80.15
2023-04-02T05:08:10.971Z,79.16
2023-04-02T05:10:49.684Z,79.77
2023-04-02T05:13:36.067Z,80.08
2023-04-02T05:16:26.241Z,80.40
2023-04-02T05:18:59.793Z,80.55
2023-04-02T05:21:38.652Z,80.90
2023-04-02T05:24:35.931Z,81.08
2023-04-02T05:27:15.984Z,80.37
2023-04-02T05:29:48.872Z,80.92
2023-04-02T05:32:41.165Z,80.77
2023-04-02T05:35:19.155Z,80.36
2023-04-02T05:37:46.784Z,79.84
2023-04-02T05:40:21.267Z,80.44
2023-04-02T05:42:52.874Z,79.93
2023-04-02T05:45:27.728Z,79.73
2023-04-02T05:48:02.104Z,79.88
2023-04-02T05:50:40.296Z,79.75
2023-04-02T05:53:19.561Z,79.61
2023-04-02T05:56:08.821Z,79.64
2023-04-02T05:58:43.954Z,78.32
2023-04-02T06:01:47.560Z,78.54
2023-04-02T06:04:24.051Z,78.21
2023-04-02T06:06:58.583Z,77.73
2023-04-02T06:09:39.765Z,77.55
2023-04-02T06:12:22.460Z,77.79
2023-04-02T06:14:49.314Z,77.76
2023-04-02T06:17:18.641Z,78.12
2023-04-02T06:19:47.709Z,78.44
2023-04-02T06:22:36.827Z,79.53
2023-04-02T06:25:20.731Z,79.65
2023-04-02T06:27:51.597Z,79.17
2023-04-02T06:30:28.446Z,79.34
2023-04-02T06:32:56.576Z,77.65
2023-04-02T06:35:24.404Z,78.06
2023-04-02T06:38:04.311Z,76.55
2023-04-02T06:40:49.603Z,76.41
2023-04-02T06:43:39.521Z,75.87
2023-04-02T06:46:42.699Z,75.71
2023-04-02T06:49:22.649Z,75.99
2023-04-02T06:51:54.532Z,75.70
2023-04-02T06:54:21.345Z,76.21
2023-04-02T06:56:56.330Z,76.02
2023-04-02T06:59:30.925Z,75.75
2023-04-02T07:02:03.697Z,74.52
2023-04-02T07:04:31.049Z,74.59
2023-04-02T07:06:57.500Z,74.67
2023-04-02T07:09:27.363Z,74.72
2023-04-02T07:11:57.241Z,74.35
2023-04-02T07:14:24.511Z,74.56
2023-04-02T07:16:51.628Z,73.32
2023-04-02T07:19:21.072Z,73.93
2023-04-02T07:21:50.533Z,74.27
2023-04-02T07:24:19.132Z,74.00
2023-04-02T07:26:48.083Z,73.80
2023-04-02T07:29:16.225Z,73.38
2023-04-02T07:31:43.047Z,74.38
2023-04-02T07:34:10.391Z,75.14
2023-04-02T07:36:37.310Z,74.90
2023-04-02T07:39:04.559Z,75.19
2023-04-02T07:41:31.572Z,74.43
2023-04-02T07:43:58.227Z,75.51
2023-04-02T07:46:26.275Z,75.79
2023-04-02T07:48:52.732Z,74.61
2023-04-02T07:51:25.113Z,74.18
2023-04-02T07:53:55.923Z,73.46
2023-04-02T07:56:24.238Z,74.27
2023-04-02T07:58:50.987Z,74.52
2023-04-02T08:01:26.302Z,73.55
2023-04-02T08:03:54.750Z,74.31
2023-04-02T08:06:21.940Z,74.20
2023-04-02T08:08:48.433Z,74.07
2023-04-02T08:11:15.190Z,73.72
2023-04-02T08:13:41.777Z,73.36
2023-04-02T08:16:09.642Z,73.59
2023-04-02T08:18:36.512Z,74.27
2023-04-02T08:21:06.731Z,73.74
2023-04-02T08:23:33.352Z,73.29
2023-04-02T08:25:59.794Z,73.64
2023-04-02T08:28:26.434Z,73.29
2023-04-02T08:30:53.092Z,73.11
2023-04-02T08:33:20.020Z,71.96
2023-04-02T08:35:47.879Z,71.59
2023-04-02T08:38:16.780Z,71.65
2023-04-02T08:40:46.757Z,71.80
2023-04-02T08:43:17.907Z,71.21
2023-04-02T08:46:19.332Z,70.86
2023-04-02T08:48:52.897Z,70.99
2023-04-02T08:51:24.188Z,70.08
2023-04-02T08:53:52.624Z,70.03
2023-04-02T08:56:25.625Z,70.01
2023-04-02T08:59:03.770Z,69.63
2023-04-02T09:01:47.261Z,70.28
2023-04-02T09:04:18.762Z,69.16
2023-04-02T09:06:46.235Z,69.42
2023-04-02T09:09:14.762Z,69.26
2023-04-02T09:12:04.564Z,68.80
2023-04-02T09:14:44.961Z,69.56
2023-04-02T09:17:21.171Z,69.57
2023-04-02T09:19:58.723Z,69.95
2023-04-02T09:22:25.336Z,70.32
2023-04-02T09:25:04.281Z,69.98
2023-04-02T09:27:41.725Z,70.17
2023-04-02T09:30:38.946Z,69.65
2023-04-02T09:33:09.902Z,69.12
2023-04-02T09:35:54.488Z,68.37
2023-04-02T09:38:31.726Z,69.21
2023-04-02T09:41:06.030Z,68.73
2023-04-02T09:43:38.080Z,68.88
2023-04-02T09:46:13.512Z,68.92
2023-04-02T09:48:55.280Z,68.17
2023-04-02T09:51:27.013Z,68.31
2023-04-02T09:54:02.616Z,68.52
2023-04-02T09:56:36.683Z,68.22
2023-04-02T09:59:16.865Z,66.77
2023-04-02T10:01:57.318Z,67.41
2023-04-02T10:04:47.437Z,66.98
2023-04-02T10:07:38.515Z,66.81
2023-04-02T10:10:27.821Z,65.67
2023-04-02T10:13:01.823Z,65.54
2023-04-02T10:15:45.942Z,64.98
2023-04-02T10:18:46.726Z,64.67
2023-04-02T10:21:18.271Z,65.50
2023-04-02T10:23:45.011Z,65.58
2023-04-02T10:26:46.773Z,65.10
2023-04-02T10:29:47.619Z,65.16
2023-04-02T10:32:23.391Z,66.21
2023-04-02T10:35:11.335Z,65.14
2023-04-02T10:37:50.121Z,64.69
2023-04-02T10:40:19.760Z,65.06
2023-04-02T10:43:05.336Z,64.97
2023-04-02T10:45:54.486Z,63.25
2023-04-02T10:48:32.786Z,62.63
2023-04-02T10:51:17.500Z,63.02
2023-04-02T10:53:51.367Z,62.71
2023-04-02T10:56:17.765Z,61.91
2023-04-02T10:58:59.272Z,61.26
2023-04-02T11:01:29.705Z,58.91
2023-04-02T11:04:17.317Z,59.40
2023-04-02T11:07:07.058Z,57.02
2023-04-02T11:09:44.435Z,58.43
2023-04-02T11:12:23.341Z,58.52
2023-04-02T11:14:50.972Z,59.49
2023-04-02T11:17:18.390Z,60.50
2023-04-02T11:19:44.872Z,60.23
2023-04-02T11:22:16.955Z,60.73
2023-04-02T11:24:48.004Z,59.97
2023-04-02T11:27:23.571Z,60.34
2023-04-02T11:30:01.405Z,60.87
2023-04-02T11:32:42.834Z,59.71
2023-04-02T11:35:26.914Z,57.09
2023-04-02T11:37:57.117Z,56.74
2023-04-02T11:40:47.333Z,56.13
2023-04-02T11:43:32.642Z,55.30
2023-04-02T11:46:04.539Z,55.37
2023-04-02T11:48:36.382Z,53.57
2023-04-02T11:51:21.425Z,53.42
2023-04-02T11:53:50.589Z,54.16
2023-04-02T11:56:21.177Z,53.68
2023-04-02T11:58:54.671Z,53.58
2023-04-02T12:01:33.328Z,52.48
2023-04-02T12:04:52.094Z,54.50
2023-04-02T12:07:27.921Z,54.39
2023-04-02T12:09:57.847Z,54.20
2023-04-02T12:12:24.217Z,55.50
2023-04-02T12:14:56.337Z,55.69
2023-04-02T12:17:33.780Z,54.94
2023-04-02T12:20:08.076Z,56.63
2023-04-02T12:22:38.008Z,56.22
2023-04-02T12:25:32.568Z,53.84
2023-04-02T12:28:14.370Z,52.72
2023-04-02T12:30:41.922Z,52.33
2023-04-02T12:33:39.043Z,51.25
2023-04-02T12:36:14.399Z,50.83
2023-04-02T12:38:47.837Z,50.74
2023-04-02T12:41:36.546Z,52.05
2023-04-02T12:44:05.013Z,54.01
2023-04-02T12:46:34.658Z,54.85
2023-04-02T12:49:24.580Z,53.01
2023-04-02T12:51:51.935Z,53.78
2023-04-02T12:54:20.510Z,52.17
2023-04-02T12:56:48.533Z,50.77
2023-04-02T12:59:28.379Z,50.19
2023-04-02T13:01:59.685Z,49.45
2023-04-02T13:04:26.941Z,49.66
2023-04-02T13:06:58.413Z,48.95
2023-04-02T13:09:30.073Z,47.96
2023-04-02T13:11:56.949Z,48.45
2023-04-02T13:14:24.638Z,49.21
2023-04-02T13:16:51.300Z,48.21
2023-04-02T13:19:17.631Z,47.93
2023-04-02T13:21:45.252Z,47.87
2023-04-02T13:24:23.603Z,47.66
2023-04-02T13:26:53.644Z,46.73
2023-04-02T13:29:27.016Z,49.11
2023-04-02T13:31:57.111Z,49.14
2023-04-02T13:34:23.696Z,50.27
2023-04-02T13:36:50.332Z,49.39
2023-04-02T13:39:16.860Z,48.59
2023-04-02T13:41:45.310Z,48.65
2023-04-02T13:44:27.256Z,48.78
2023-04-02T13:46:54.646Z,49.23
2023-04-02T13:49:21.588Z,49.28
2023-04-02T13:51:54.032Z,48.91
2023-04-02T13:54:27.495Z,47.60
2023-04-02T13:56:55.945Z,49.10
2023-04-02T13:59:22.696Z,50.26
2023-04-02T14:01:52.403Z,50.18
2023-04-02T14:04:24.587Z,49.98
2023-04-02T14:07:25.862Z,49.12
2023-04-02T14:10:07.587Z,48.05
2023-04-02T14:12:46.216Z,46.89
2023-04-02T14:15:35.010Z,45.80
2023-04-02T14:18:13.870Z,45.82
2023-04-02T14:20:58.581Z,47.03
2023-04-02T14:23:46.884Z,47.33
2023-04-02T14:26:39.558Z,48.66
2023-04-02T14:29:16.168Z,49.29
2023-04-02T14:31:59.649Z,50.21
2023-04-02T14:35:03.747Z,50.23
2023-04-02T14:38:07.787Z,48.09
2023-04-02T14:41:22.072Z,46.61
2023-04-02T14:44:10.550Z,46.35
2023-04-02T14:46:38.215Z,45.86
2023-04-02T14:49:11.429Z,45.95
2023-04-02T14:51:41.521Z,46.96
2023-04-02T14:54:21.211Z,48.82
2023-04-02T14:56:52.447Z,48.35
2023-04-02T14:59:46.450Z,49.23
2023-04-02T15:02:18.834Z,49.33
2023-04-02T15:05:01.202Z,49.94
2023-04-02T15:07:39.821Z,49.10
2023-04-02T15:10:21.946Z,47.59
2023-04-02T15:12:49.565Z,47.63
2023-04-02T15:15:40.925Z,47.18
2023-04-02T15:18:15.863Z,44.66
2023-04-02T15:21:15.996Z,44.89
2023-04-02T15:23:54.892Z,44.74
2023-04-02T15:26:32.151Z,45.61
2023-04-02T15:29:28.894Z,46.42
2023-04-02T15:32:05.758Z,47.15
2023-04-02T15:34:39.806Z,47.84
2023-04-02T15:37:23.427Z,48.76
2023-04-02T15:40:18.304Z,48.57
2023-04-02T15:42:56.995Z,48.09
2023-04-02T15:45:37.171Z,47.41
2023-04-02T15:48:11.644Z,47.21
2023-04-02T15:50:47.419Z,47.22
2023-04-02T15:53:39.176Z,46.39
2023-04-02T15:56:36.104Z,45.79
2023-04-02T15:59:40.097Z,45.27
2023-04-02T16:02:48.153Z,46.22
2023-04-02T16:05:36.574Z,46.41
2023-04-02T16:08:27.950Z,47.06
2023-04-02T16:10:54.740Z,47.62
2023-04-02T16:13:28.606Z,48.38
2023-04-02T16:16:22.456Z,49.35
2023-04-02T16:19:15.967Z,49.56
2023-04-02T16:21:51.598Z,49.88
2023-04-02T16:24:18.044Z,50.28
2023-04-02T16:26:52.293Z,50.03
2023-04-02T16:29:53.926Z,48.79
2023-04-02T16:32:49.268Z,48.65
2023-04-02T16:38:30.461Z,49.13
2023-04-02T16:41:27.636Z,48.16
2023-04-02T16:44:06.284Z,47.53
2023-04-02T16:46:57.397Z,48.34
2023-04-02T16:49:37.490Z,48.62
2023-04-02T16:52:38.477Z,49.05
2023-04-02T16:55:14.197Z,48.86
2023-04-02T16:57:57.310Z,49.24
2023-04-02T17:00:32.696Z,49.66
2023-04-02T17:03:25.642Z,49.79
2023-04-02T17:06:05.740Z,49.30
2023-04-02T17:08:43.809Z,49.53
2023-04-02T17:11:21.430Z,49.56
2023-04-02T17:13:56.561Z,49.95
2023-04-02T17:16:41.266Z,50.81
2023-04-02T17:19:13.315Z,51.12
2023-04-02T17:21:44.208Z,51.82
2023-04-02T17:24:14.188Z,51.41
2023-04-02T17:26:43.433Z,51.93
2023-04-02T17:29:17.210Z,52.10
2023-04-02T17:31:45.781Z,52.60
2023-04-02T17:34:15.085Z,51.77
2023-04-02T17:37:04.426Z,52.08
2023-04-02T17:39:42.941Z,52.48
2023-04-02T17:42:44.478Z,52.79
2023-04-02T17:45:28.117Z,53.11
2023-04-02T17:48:17.940Z,53.11
2023-04-02T17:50:53.504Z,52.68
2023-04-02T17:53:36.787Z,53.09
2023-04-02T17:56:18.667Z,53.63
2023-04-02T17:59:16.827Z,53.78
2023-04-02T18:01:49.942Z,53.97
2023-04-02T18:04:25.898Z,54.47
2023-04-02T18:07:12.083Z,54.83
2023-04-02T18:09:50.510Z,54.75
2023-04-02T18:12:39.858Z,54.44
2023-04-02T18:15:24.391Z,55.60
2023-04-02T18:18:18.753Z,56.29
2023-04-02T18:21:03.182Z,57.13
2023-04-02T18:24:10.163Z,56.29
2023-04-02T18:26:55.184Z,57.70
2023-04-02T18:29:42.053Z,57.91
2023-04-02T18:32:42.532Z,57.66
2023-04-02T18:35:16.920Z,58.71
2023-04-02T18:37:58.567Z,57.85
2023-04-02T18:40:34.549Z,57.41
2023-04-02T18:43:18.899Z,57.32
2023-04-02T18:46:14.203Z,56.38
2023-04-02T18:48:52.225Z,56.21
2023-04-02T18:51:22.402Z,56.67
2023-04-02T18:53:54.375Z,56.73
2023-04-02T18:56:23.626Z,57.47
2023-04-02T18:59:12.254Z,58.02
2023-04-02T19:01:46.493Z,58.33
2023-04-02T19:04:18.950Z,58.05
2023-04-02T19:06:52.211Z,58.52
2023-04-02T19:09:30.954Z,58.85
2023-04-02T19:11:57.399Z,58.89
2023-04-02T19:14:24.186Z,59.39
2023-04-02T19:16:53.552Z,59.20
2023-04-02T19:19:23.203Z,60.26
2023-04-02T19:22:08.544Z,60.57
2023-04-02T19:24:57.397Z,60.81
2023-04-02T19:27:53.159Z,60.71
2023-04-02T19:30:35.720Z,60.63
2023-04-02T19:33:28.105Z,60.49
2023-04-02T19:36:05.601Z,60.99
2023-04-02T19:38:47.300Z,61.13
2023-04-02T19:41:39.674Z,61.91
2023-04-02T19:44:12.621Z,61.93
2023-04-02T19:46:39.980Z,61.68
2023-04-02T19:49:22.754Z,61.64
2023-04-02T19:51:49.923Z,62.10
2023-04-02T19:54:17.941Z,62.95
2023-04-02T19:56:44.620Z,62.55
2023-04-02T19:59:18.086Z,62.37
2023-04-02T20:01:46.455Z,62.06
2023-04-02T20:04:14.200Z,62.39
2023-04-02T20:06:40.797Z,62.63
2023-04-02T20:09:08.525Z,63.21
2023-04-02T20:11:37.357Z,63.74
2023-04-02T20:14:04.300Z,63.68
2023-04-02T20:16:30.901Z,64.15
2023-04-02T20:18:57.605Z,64.65
2023-04-02T20:21:24.201Z,64.95
2023-04-02T20:23:54.636Z,64.97
2023-04-02T20:26:22.462Z,64.76
2023-04-02T20:28:48.970Z,64.48
2023-04-02T20:31:17.532Z,64.71
2023-04-02T20:33:44.405Z,64.99
2023-04-02T20:36:16.220Z,65.09
2023-04-02T20:38:43.537Z,65.30
2023-04-02T20:41:10.268Z,65.28
2023-04-02T20:43:40.204Z,65.54
2023-04-02T20:46:10.104Z,66.06
2023-04-02T20:48:37.563Z,65.44
2023-04-02T20:51:06.192Z,65.87
2023-04-02T20:53:34.519Z,65.68
2023-04-02T20:56:06.979Z,65.58
2023-04-02T20:58:35.592Z,66.32
2023-04-02T21:01:16.733Z,66.38
2023-04-02T21:03:43.729Z,66.65
2023-04-02T21:06:18.787Z,67.31
2023-04-02T21:08:45.535Z,67.11
2023-04-02T21:11:12.403Z,67.91
2023-04-02T21:13:42.074Z,67.87
2023-04-02T21:16:19.096Z,67.73
2023-04-02T21:18:46.809Z,68.29
2023-04-02T21:21:14.569Z,68.50
2023-04-02T21:23:42.845Z,68.02
2023-04-02T21:26:12.802Z,67.96
2023-04-02T21:28:41.121Z,67.96
2023-04-02T21:31:17.618Z,67.45
2023-04-02T21:33:46.576Z,67.96
2023-04-02T21:36:16.062Z,67.79
2023-04-02T21:38:51.825Z,67.25
2023-04-02T21:41:24.075Z,67.71
2023-04-02T21:43:51.320Z,67.50
2023-04-02T21:46:19.832Z,67.62
2023-04-02T21:48:46.644Z,67.61
2023-04-02T21:51:15.903Z,67.13
2023-04-02T21:53:43.060Z,66.73
2023-04-02T21:56:17.016Z,67.09
2023-04-02T21:58:45.092Z,67.59
2023-04-02T22:01:23.812Z,67.59
2023-04-02T22:03:53.764Z,67.44
2023-04-02T22:06:21.536Z,67.85
2023-04-02T22:08:53.242Z,67.74
2023-04-02T22:11:22.695Z,68.32
2023-04-02T22:13:49.953Z,68.08
2023-04-02T22:16:22.440Z,68.19
2023-04-02T22:18:51.009Z,68.78
2023-04-02T22:21:19.542Z,68.40
2023-04-02T22:23:46.945Z,68.83
2023-04-02T22:26:15.814Z,69.28
2023-04-02T22:28:42.446Z,69.97
2023-04-02T22:31:15.205Z,70.35
2023-04-02T22:33:42.661Z,70.49
2023-04-02T22:36:09.596Z,71.34
2023-04-02T22:38:36.892Z,71.76
2023-04-02T22:41:14.300Z,71.83
2023-04-02T22:43:43.768Z,72.30
2023-04-02T22:46:11.916Z,72.34
2023-04-02T22:48:41.248Z,72.24
2023-04-02T22:51:09.607Z,72.13
2023-04-02T22:53:36.772Z,72.83
2023-04-02T22:56:26.345Z,72.13
2023-04-02T22:58:53.057Z,71.91
2023-04-02T23:01:23.795Z,72.50
2023-04-02T23:03:54.726Z,72.50
2023-04-02T23:06:22.407Z,72.20
2023-04-02T23:08:48.936Z,72.46
2023-04-02T23:11:18.583Z,72.93
2023-04-02T23:13:47.226Z,72.31
2023-04-02T23:16:15.362Z,72.82
2023-04-02T23:18:42.810Z,72.50
2023-04-02T23:21:09.897Z,72.70
2023-04-02T23:23:37.671Z,73.20
2023-04-02T23:26:22.352Z,73.58
2023-04-02T23:28:50.274Z,73.98
2023-04-02T23:31:22.796Z,73.81
2023-04-02T23:33:50.552Z,73.92
2023-04-02T23:36:28.867Z,74.54
2023-04-02T23:38:59.599Z,74.92
2023-04-02T23:41:29.451Z,75.20
2023-04-02T23:43:56.715Z,75.43
2023-04-02T23:46:24.372Z,75.65
2023-04-02T23:48:51.651Z,75.57
2023-04-02T23:51:18.634Z,76.08
2023-04-02T23:53:45.180Z,76.38
2023-04-02T23:56:12.004Z,76.35
2023-04-02T23:58:38.718Z,77.18
